createdAt,value
2019-04-23T00:01:16.488Z,13.75
2019-04-23T00:03:47.598Z,10.65
2019-04-23T00:06:18.463Z,11.48
2019-04-23T00:11:31.300Z,11.73
2019-04-23T00:14:02.746Z,12.40
2019-04-23T00:16:30.239Z,12.60
2019-04-23T00:18:55.867Z,11.48
2019-04-23T00:21:42.429Z,9.63
2019-04-23T00:24:21.335Z,10.70
2019-04-23T00:26:52.117Z,9.93
2019-04-23T00:29:21.108Z,10.53
2019-04-23T00:31:49.920Z,10.78
2019-04-23T00:34:38.066Z,10.13
2019-04-23T00:37:09.860Z,10.80
2019-04-23T00:39:33.878Z,10.48
2019-04-23T00:42:08.606Z,10.75
2019-04-23T00:44:45.935Z,11.18
2019-04-23T00:47:20.910Z,10.45
2019-04-23T00:49:57.631Z,10.15
2019-04-23T00:52:28.458Z,9.98
2019-04-23T00:55:07.657Z,11.60
2019-04-23T00:57:35.991Z,13.18
2019-04-23T01:00:15.568Z,12.20
2019-04-23T01:02:36.976Z,12.37
2019-04-23T01:05:10.342Z,12.55
2019-04-23T01:07:45.714Z,10.78
2019-04-23T01:12:54.348Z,13.25
2019-04-23T01:15:25.757Z,11.12
2019-04-23T01:18:02.308Z,11.48
2019-04-23T01:20:39.055Z,13.88
2019-04-23T01:22:46.324Z,15.32
2019-04-23T01:25:28.694Z,10.90
2019-04-23T01:28:25.338Z,13.65
2019-04-23T01:30:57.411Z,11.80
2019-04-23T01:33:35.838Z,12.30
2019-04-23T01:36:10.945Z,12.10
2019-04-23T01:41:09.270Z,11.10
2019-04-23T01:43:41.002Z,13.53
2019-04-23T01:46:12.852Z,13.90
2019-04-23T01:48:48.292Z,13.08
2019-04-23T01:51:20.209Z,12.90
2019-04-23T01:53:49.774Z,11.43
2019-04-23T01:56:25.979Z,15.93
2019-04-23T02:01:36.745Z,13.90
2019-04-23T02:04:15.245Z,12.30
2019-04-23T02:06:39.090Z,14.93
2019-04-23T02:09:12.661Z,14.13
2019-04-23T02:11:45.557Z,12.40
2019-04-23T02:14:26.729Z,14.05
2019-04-23T02:16:49.950Z,13.83
2019-04-23T02:22:01.271Z,13.28
2019-04-23T02:27:16.473Z,18.00
2019-04-23T02:29:51.518Z,15.65
2019-04-23T02:32:19.056Z,15.38
2019-04-23T02:34:57.743Z,14.68
2019-04-23T02:37:40.876Z,15.48
2019-04-23T02:45:02.776Z,14.98
2019-04-23T02:47:44.018Z,10.65
2019-04-23T02:50:34.951Z,11.43
2019-04-23T02:57:50.091Z,14.60
2019-04-23T03:00:28.106Z,17.60
2019-04-23T03:03:01.972Z,14.93
2019-04-23T03:05:44.191Z,12.03
2019-04-23T03:08:02.196Z,10.55
2019-04-23T03:13:21.655Z,11.60
2019-04-23T03:18:35.283Z,12.58
2019-04-23T03:21:05.798Z,21.73
2019-04-23T03:23:32.078Z,12.15
2019-04-23T03:26:13.762Z,12.25
2019-04-23T03:33:04.080Z,11.15
2019-04-23T03:38:51.714Z,11.50
2019-04-23T03:49:07.661Z,12.65
2019-04-23T03:54:21.812Z,13.03
2019-04-23T03:59:20.170Z,12.55
2019-04-23T04:01:46.386Z,19.55
2019-04-23T04:07:15.315Z,11.43
2019-04-23T04:09:34.159Z,11.73
2019-04-23T04:12:00.982Z,12.78
2019-04-23T04:17:12.462Z,12.70
2019-04-23T04:19:39.993Z,13.00
2019-04-23T04:22:23.840Z,10.60
2019-04-23T04:24:40.165Z,15.80
2019-04-23T04:27:33.970Z,10.45
2019-04-23T04:29:56.940Z,10.48
2019-04-23T04:42:37.075Z,12.10
2019-04-23T04:47:41.774Z,13.83
2019-04-23T04:50:04.755Z,13.58
2019-04-23T04:53:00.679Z,12.33
2019-04-23T04:55:37.617Z,13.60
2019-04-23T04:58:03.021Z,14.83
2019-04-23T05:00:39.793Z,12.37
2019-04-23T05:03:14.844Z,12.98
2019-04-23T05:08:07.383Z,14.73
2019-04-23T05:10:44.157Z,11.48
2019-04-23T05:15:44.901Z,11.08
2019-04-23T05:18:23.428Z,15.95
2019-04-23T05:21:06.151Z,11.65
2019-04-23T05:25:58.015Z,14.05
2019-04-23T05:28:36.661Z,10.98
2019-04-23T05:31:08.665Z,11.90
2019-04-23T05:33:57.198Z,12.30
2019-04-23T05:39:01.601Z,12.15
2019-04-23T05:41:17.206Z,13.03
2019-04-23T05:43:50.631Z,13.78
2019-04-23T05:46:31.917Z,12.05
2019-04-23T05:48:58.267Z,14.78
2019-04-23T05:51:31.231Z,15.50
2019-04-23T05:53:58.391Z,13.00
2019-04-23T05:56:32.450Z,12.58
2019-04-23T05:59:09.691Z,16.10
2019-04-23T06:06:54.164Z,14.28
2019-04-23T06:09:23.612Z,12.15
2019-04-23T06:14:24.952Z,13.88
2019-04-23T06:16:57.657Z,16.05
2019-04-23T06:19:24.609Z,12.85
2019-04-23T06:22:16.233Z,15.55
2019-04-23T06:24:34.317Z,14.23
2019-04-23T06:27:13.506Z,13.53
2019-04-23T06:29:39.435Z,14.00
2019-04-23T06:32:14.379Z,14.05
2019-04-23T06:34:50.097Z,12.55
2019-04-23T06:37:36.157Z,13.22
2019-04-23T06:39:55.457Z,12.68
2019-04-23T06:42:27.876Z,12.93
2019-04-23T06:44:59.961Z,15.68
2019-04-23T06:47:32.701Z,13.45
2019-04-23T06:50:23.956Z,13.93
2019-04-23T06:52:29.183Z,14.55
2019-04-23T06:55:30.228Z,13.08
2019-04-23T06:57:48.165Z,17.30
2019-04-23T07:00:25.883Z,13.38
2019-04-23T07:02:55.264Z,14.58
2019-04-23T07:05:23.828Z,13.95
2019-04-23T07:07:59.514Z,14.28
2019-04-23T07:10:36.259Z,15.88
2019-04-23T07:13:03.175Z,13.95
2019-04-23T07:15:49.642Z,15.45
2019-04-23T07:18:07.563Z,15.83
2019-04-23T07:20:46.494Z,14.75
2019-04-23T07:23:26.045Z,17.55
2019-04-23T07:25:49.956Z,15.15
2019-04-23T07:28:19.964Z,15.03
2019-04-23T07:30:55.856Z,15.28
2019-04-23T07:33:19.097Z,14.87
2019-04-23T07:35:55.940Z,15.63
2019-04-23T07:38:33.090Z,16.00
2019-04-23T07:40:46.955Z,16.52
2019-04-23T07:43:26.473Z,15.78
2019-04-23T07:46:02.342Z,16.40
2019-04-23T07:48:37.169Z,17.35
2019-04-23T07:50:52.034Z,16.07
2019-04-23T07:53:22.871Z,16.15
2019-04-23T08:00:57.112Z,17.07
2019-04-23T08:03:31.297Z,15.85
2019-04-23T08:06:01.040Z,15.18
2019-04-23T08:08:31.829Z,14.13
2019-04-23T08:11:23.417Z,14.70
2019-04-23T08:13:41.931Z,17.90
2019-04-23T08:16:21.835Z,15.88
2019-04-23T08:18:48.059Z,15.20
2019-04-23T08:21:10.120Z,16.00
2019-04-23T08:23:44.016Z,15.63
2019-04-23T08:26:23.870Z,15.30
2019-04-23T08:28:48.838Z,16.17
2019-04-23T08:31:16.524Z,16.05
2019-04-23T08:33:52.999Z,14.87
2019-04-23T08:38:43.584Z,14.45
2019-04-23T08:41:36.051Z,16.07
2019-04-23T08:46:26.905Z,16.23
2019-04-23T08:48:55.986Z,15.60
2019-04-23T08:51:31.485Z,15.18
2019-04-23T08:53:50.024Z,16.62
2019-04-23T08:56:27.164Z,15.72
2019-04-23T08:58:47.369Z,17.57
2019-04-23T09:01:48.092Z,16.05
2019-04-23T09:03:46.071Z,17.57
2019-04-23T09:06:24.487Z,15.70
2019-04-23T09:08:49.614Z,17.80
2019-04-23T09:12:31.572Z,15.85
2019-04-23T09:16:29.258Z,15.90
2019-04-23T09:19:02.823Z,17.60
2019-04-23T09:21:29.270Z,17.50
2019-04-23T09:24:00.699Z,17.92
2019-04-23T09:26:30.218Z,16.82
2019-04-23T09:34:07.936Z,16.00
2019-04-23T09:36:36.824Z,16.85
2019-04-23T09:39:10.073Z,16.73
2019-04-23T09:41:31.441Z,16.35
2019-04-23T09:46:44.284Z,16.10
2019-04-23T09:49:20.643Z,17.92
2019-04-23T09:51:51.195Z,19.15
2019-04-23T10:01:50.130Z,20.35
2019-04-23T10:04:17.112Z,15.70
2019-04-23T10:06:38.725Z,16.62
2019-04-23T10:09:10.591Z,17.57
2019-04-23T10:11:42.972Z,16.42
2019-04-23T10:14:14.695Z,16.50
2019-04-23T10:16:47.223Z,16.77
2019-04-23T10:19:19.016Z,15.83
2019-04-23T10:21:51.253Z,16.60
2019-04-23T10:24:23.322Z,16.75
2019-04-23T10:26:55.699Z,16.52
2019-04-23T10:29:28.042Z,15.50
2019-04-23T10:31:59.706Z,15.60
2019-04-23T10:34:42.238Z,15.30
2019-04-23T10:37:03.044Z,15.83
2019-04-23T10:39:37.754Z,17.87
2019-04-23T10:42:07.931Z,17.50
2019-04-23T10:44:41.365Z,18.30
2019-04-23T10:47:37.104Z,20.37
2019-04-23T10:50:16.989Z,19.37
2019-04-23T10:52:50.140Z,17.10
2019-04-23T10:55:27.913Z,16.02
2019-04-23T10:57:45.967Z,18.23
2019-04-23T11:00:23.823Z,15.75
2019-04-23T11:02:58.868Z,15.58
2019-04-23T11:05:42.979Z,15.60
2019-04-23T11:08:08.036Z,16.25
2019-04-23T11:10:32.853Z,15.48
2019-04-23T11:13:11.330Z,15.18
2019-04-23T11:16:00.260Z,16.40
2019-04-23T11:18:09.074Z,20.70
2019-04-23T11:21:06.082Z,21.93
2019-04-23T11:23:27.330Z,20.88
2019-04-23T11:25:48.719Z,18.27
2019-04-23T11:28:28.120Z,18.92
2019-04-23T11:30:56.780Z,19.75
2019-04-23T11:33:50.904Z,17.32
2019-04-23T11:36:35.665Z,19.92
2019-04-23T11:41:19.304Z,16.60
2019-04-23T11:43:42.415Z,16.70
2019-04-23T11:46:32.561Z,18.35
2019-04-23T11:49:22.354Z,19.70
2019-04-23T11:51:47.510Z,23.40
2019-04-23T11:53:57.018Z,23.62
2019-04-23T11:58:59.778Z,26.48
2019-04-23T12:01:42.256Z,22.52
2019-04-23T12:04:14.087Z,24.25
2019-04-23T12:06:39.065Z,23.98
2019-04-23T12:09:17.681Z,20.25
2019-04-23T12:11:52.799Z,21.90
2019-04-23T12:14:29.152Z,22.10
2019-04-23T12:17:03.296Z,19.85
2019-04-23T12:22:01.183Z,18.57
2019-04-23T12:29:37.350Z,20.45
2019-04-23T12:32:24.160Z,20.52
2019-04-23T12:34:52.572Z,18.90
2019-04-23T12:37:32.725Z,20.77
2019-04-23T12:40:00.495Z,19.48
2019-04-23T12:45:06.308Z,18.75
2019-04-23T12:47:43.756Z,20.43
2019-04-23T12:57:46.851Z,22.35
2019-04-23T13:00:23.203Z,17.62
2019-04-23T13:02:52.693Z,17.52
2019-04-23T13:05:31.491Z,19.85
2019-04-23T13:08:23.351Z,23.52
2019-04-23T13:13:09.288Z,21.15
2019-04-23T13:15:34.290Z,19.05
2019-04-23T13:18:15.440Z,20.48
2019-04-23T13:23:16.901Z,21.00
2019-04-23T13:30:59.388Z,25.27
2019-04-23T13:36:08.437Z,25.77
2019-04-23T13:41:17.184Z,23.85
2019-04-23T13:43:47.894Z,22.65
2019-04-23T13:46:13.297Z,22.65
2019-04-23T13:48:42.366Z,27.20
2019-04-23T13:51:34.178Z,22.65
2019-04-23T13:54:08.223Z,23.57
2019-04-23T13:59:07.001Z,28.23
2019-04-23T14:01:35.566Z,22.70
2019-04-23T14:04:11.852Z,23.95
2019-04-23T14:06:46.450Z,23.12
2019-04-23T14:09:20.414Z,22.55
2019-04-23T14:11:43.438Z,22.15
2019-04-23T14:14:36.207Z,21.57
2019-04-23T14:19:28.026Z,25.08
2019-04-23T14:22:21.191Z,20.50
2019-04-23T14:24:46.213Z,21.17
2019-04-23T14:27:14.919Z,21.45
2019-04-23T14:29:48.247Z,25.20
2019-04-23T14:32:29.460Z,21.70
2019-04-23T14:37:22.148Z,20.95
2019-04-23T14:40:01.561Z,23.98
2019-04-23T14:42:44.887Z,22.13
2019-04-23T14:45:24.953Z,27.85
2019-04-23T14:47:46.370Z,22.93
2019-04-23T14:50:27.927Z,25.20
2019-04-23T14:52:50.516Z,23.52
2019-04-23T14:58:00.948Z,20.90
2019-04-23T15:00:31.477Z,22.25
2019-04-23T15:03:02.449Z,27.82
2019-04-23T15:05:36.198Z,21.57
2019-04-23T15:08:07.519Z,22.02
2019-04-23T15:10:41.667Z,23.67
2019-04-23T15:13:21.340Z,21.93
2019-04-23T15:15:53.224Z,23.18
2019-04-23T15:18:24.480Z,27.27
2019-04-23T15:21:08.563Z,23.35
2019-04-23T15:26:55.307Z,23.25
2019-04-23T15:28:08.871Z,23.50
2019-04-23T15:31:15.402Z,23.10
2019-04-23T15:33:49.161Z,22.98
2019-04-23T15:43:57.413Z,24.37
2019-04-23T15:46:25.226Z,22.48
2019-04-23T15:54:06.750Z,22.60
2019-04-23T15:56:45.195Z,23.90
2019-04-23T15:59:31.282Z,25.27
2019-04-23T16:03:49.083Z,23.87
2019-04-23T16:06:22.975Z,24.07
2019-04-23T16:09:12.696Z,22.30
2019-04-23T16:11:48.005Z,29.32
2019-04-23T16:17:04.062Z,25.10
2019-04-23T16:19:33.889Z,25.80
2019-04-23T16:22:20.285Z,31.57
2019-04-23T16:24:42.806Z,25.15
2019-04-23T16:27:13.821Z,26.05
2019-04-23T16:30:06.133Z,28.90
2019-04-23T16:32:27.732Z,24.82
2019-04-23T16:35:03.223Z,28.65
2019-04-23T16:37:27.125Z,27.13
2019-04-23T16:40:08.102Z,24.77
2019-04-23T16:42:38.186Z,25.05
2019-04-23T16:45:12.361Z,24.87
2019-04-23T16:47:43.719Z,23.10
2019-04-23T16:50:17.853Z,23.57
2019-04-23T16:52:49.312Z,22.27
2019-04-23T16:55:17.339Z,23.55
2019-04-23T16:58:01.672Z,24.52
2019-04-23T17:03:06.797Z,25.57
2019-04-23T17:05:31.056Z,23.35
2019-04-23T17:08:30.971Z,26.02
2019-04-23T17:10:46.754Z,25.32
2019-04-23T17:13:14.229Z,26.25
2019-04-23T17:15:58.065Z,24.50
2019-04-23T17:18:26.261Z,24.92
2019-04-23T17:20:50.591Z,25.10
2019-04-23T17:23:40.166Z,27.10
2019-04-23T17:26:02.718Z,24.07
2019-04-23T17:28:33.448Z,24.80
2019-04-23T17:31:34.300Z,24.47
2019-04-23T17:33:43.462Z,23.22
2019-04-23T17:41:38.883Z,23.80
2019-04-23T17:44:20.318Z,23.00
2019-04-23T17:46:32.401Z,25.92
2019-04-23T17:49:06.146Z,28.92
2019-04-23T17:51:31.067Z,23.42
2019-04-23T17:54:10.862Z,23.67
2019-04-23T17:59:22.802Z,23.62
2019-04-23T18:02:08.015Z,23.57
2019-04-23T18:04:27.512Z,24.43
2019-04-23T18:06:58.423Z,26.15
2019-04-23T18:09:27.820Z,27.93
2019-04-23T18:12:19.714Z,27.22
2019-04-23T18:14:28.268Z,26.68
2019-04-23T18:17:13.533Z,26.55
2019-04-23T18:19:39.520Z,25.82
2019-04-23T18:22:22.250Z,28.65
2019-04-23T18:24:50.238Z,28.38
2019-04-23T18:30:00.765Z,27.00
2019-04-23T18:32:32.795Z,29.10
2019-04-23T18:35:15.460Z,26.97
2019-04-23T18:37:34.429Z,26.05
2019-04-23T18:40:04.296Z,25.35
2019-04-23T18:43:08.778Z,28.73
2019-04-23T18:45:22.836Z,25.45
2019-04-23T18:47:49.064Z,26.20
2019-04-23T18:50:32.751Z,28.30
2019-04-23T18:53:04.585Z,28.12
2019-04-23T18:55:58.924Z,29.45
2019-04-23T18:58:24.793Z,28.70
2019-04-23T19:03:10.535Z,31.68
2019-04-23T19:05:47.484Z,24.67
2019-04-23T19:08:36.099Z,26.87
2019-04-23T19:10:50.914Z,27.77
2019-04-23T19:13:26.860Z,30.85
2019-04-23T19:15:59.720Z,27.87
2019-04-23T19:18:38.290Z,27.27
2019-04-23T19:21:08.977Z,26.60
2019-04-23T19:23:47.248Z,28.32
2019-04-23T19:26:23.069Z,26.95
2019-04-23T19:28:48.402Z,28.50
2019-04-23T19:33:53.464Z,30.70
2019-04-23T19:36:26.196Z,33.75
2019-04-23T19:39:03.264Z,31.42
2019-04-23T19:41:47.560Z,32.73
2019-04-23T19:44:08.369Z,33.65
2019-04-23T19:46:49.124Z,32.50
2019-04-23T19:49:13.776Z,32.73
2019-04-23T19:51:48.257Z,36.28
2019-04-23T19:56:55.265Z,36.20
2019-04-23T19:59:31.578Z,36.45
2019-04-23T20:02:00.436Z,32.30
2019-04-23T20:04:28.901Z,32.00
2019-04-23T20:07:16.015Z,31.15
2019-04-23T20:09:43.803Z,31.35
2019-04-23T20:13:02.118Z,31.90
2019-04-23T20:15:53.450Z,34.67
2019-04-23T20:17:58.799Z,34.75
2019-04-23T20:20:52.711Z,31.45
2019-04-23T20:23:26.000Z,33.60
2019-04-23T20:28:49.361Z,33.23
2019-04-23T20:31:16.207Z,32.05
2019-04-23T20:36:05.554Z,32.95
2019-04-23T20:38:48.611Z,31.68
2019-04-23T20:41:15.342Z,34.08
2019-04-23T20:43:49.167Z,30.55
2019-04-23T20:46:14.811Z,31.68
2019-04-23T20:51:24.737Z,34.58
2019-04-23T20:54:02.317Z,35.35
2019-04-23T20:56:34.507Z,32.38
2019-04-23T20:59:03.246Z,35.70
2019-04-23T21:01:38.633Z,32.23
2019-04-23T21:04:37.560Z,31.97
2019-04-23T21:06:48.905Z,37.70
2019-04-23T21:12:06.689Z,39.38
2019-04-23T21:16:56.081Z,38.38
2019-04-23T21:19:36.659Z,42.93
2019-04-23T21:22:06.037Z,39.35
2019-04-23T21:24:42.323Z,39.55
2019-04-23T21:27:18.162Z,39.35
2019-04-23T21:29:53.595Z,39.05
2019-04-23T21:32:24.795Z,37.03
2019-04-23T21:35:01.723Z,39.30
2019-04-23T21:37:23.372Z,38.80
2019-04-23T21:42:42.738Z,34.00
2019-04-23T21:45:06.441Z,36.42
2019-04-23T21:47:48.361Z,38.80
2019-04-23T21:50:19.791Z,37.75
2019-04-23T21:52:49.060Z,37.53
2019-04-23T21:55:20.823Z,36.45
2019-04-23T21:57:59.617Z,36.73
2019-04-23T22:00:26.188Z,36.75
2019-04-23T22:03:06.797Z,35.17
2019-04-23T22:05:32.565Z,38.88
2019-04-23T22:08:02.485Z,34.33
2019-04-23T22:10:45.865Z,37.03
2019-04-23T22:16:47.021Z,36.20
2019-04-23T22:18:16.149Z,36.05
2019-04-23T22:23:30.556Z,39.70
2019-04-23T22:26:16.867Z,38.98
2019-04-23T22:28:43.446Z,36.65
2019-04-23T22:31:12.483Z,36.25
2019-04-23T22:36:11.302Z,37.17
2019-04-23T22:38:45.215Z,34.78
2019-04-23T22:41:16.219Z,34.90
2019-04-23T22:43:57.212Z,35.05
2019-04-23T22:46:27.862Z,37.05
2019-04-23T22:49:07.822Z,36.88
2019-04-23T22:51:28.994Z,39.40
2019-04-23T22:56:35.588Z,37.60
2019-04-23T22:59:24.576Z,34.80
2019-04-23T23:01:51.291Z,36.95
2019-04-23T23:04:24.084Z,33.60
2019-04-23T23:06:57.615Z,35.88
2019-04-23T23:11:54.280Z,49.23
2019-04-23T23:16:58.432Z,33.42
2019-04-23T23:19:40.424Z,32.08
2019-04-23T23:24:37.621Z,28.98
2019-04-23T23:27:05.556Z,29.72
2019-04-23T23:29:49.396Z,31.10
2019-04-23T23:32:23.015Z,27.80
2019-04-23T23:37:19.044Z,33.63
2019-04-23T23:40:04.992Z,27.87
2019-04-23T23:45:10.228Z,27.27
2019-04-23T23:47:39.340Z,28.38
2019-04-23T23:52:51.671Z,28.77
2019-04-23T23:55:15.765Z,30.08
2019-04-23T23:57:51.126Z,29.37
